createdAt,value
2022-11-02T00:00:28.286Z,78.7
2022-11-02T00:03:28.316Z,78.6
2022-11-02T00:06:28.297Z,78.5
2022-11-02T00:09:28.300Z,78.7
2022-11-02T00:12:28.312Z,78.8
2022-11-02T00:15:28.308Z,78.9
2022-11-02T00:18:28.316Z,79.1
2022-11-02T00:21:28.346Z,79.4
2022-11-02T00:24:28.328Z,79.6
2022-11-02T00:27:28.323Z,79.8
2022-11-02T00:30:28.330Z,80.1
2022-11-02T00:33:28.334Z,80.3
2022-11-02T00:36:28.335Z,80.7
2022-11-02T00:39:28.365Z,80.5
2022-11-02T00:42:28.344Z,80.2
2022-11-02T00:45:28.347Z,79.9
2022-11-02T00:48:28.352Z,79.4
2022-11-02T00:51:28.353Z,79.2
2022-11-02T00:54:28.596Z,79.1
2022-11-02T00:57:28.374Z,79
2022-11-02T01:00:28.350Z,78.9
2022-11-02T01:03:28.355Z,78.8
2022-11-02T01:06:28.353Z,78.9
2022-11-02T01:09:28.395Z,78.7
2022-11-02T01:12:28.361Z,78.6
2022-11-02T01:15:28.388Z,78.5
2022-11-02T01:18:28.376Z,78.6
2022-11-02T01:21:28.385Z,78.6
2022-11-02T01:24:28.394Z,78.5
2022-11-02T01:27:28.410Z,77.9
2022-11-02T01:30:28.420Z,77.4
2022-11-02T01:33:28.455Z,76.8
2022-11-02T01:36:28.444Z,76.4
2022-11-02T01:39:28.451Z,76
2022-11-02T01:42:28.471Z,75.7
2022-11-02T01:45:28.490Z,75.4
2022-11-02T01:48:28.505Z,75.2
2022-11-02T01:51:28.536Z,75.3
2022-11-02T01:54:28.534Z,75.2
2022-11-02T01:57:28.551Z,75.1
2022-11-02T02:00:28.565Z,75.1
2022-11-02T02:03:28.579Z,75.2
2022-11-02T02:06:28.595Z,75.3
2022-11-02T02:09:28.639Z,75.5
2022-11-02T02:12:28.627Z,75.6
2022-11-02T02:15:28.648Z,75.8
2022-11-02T02:18:28.651Z,76
2022-11-02T02:21:28.664Z,76.2
2022-11-02T02:24:28.676Z,76.3
2022-11-02T02:27:28.718Z,76.4
2022-11-02T02:30:28.702Z,76.7
2022-11-02T02:33:28.718Z,76.7
2022-11-02T02:36:28.729Z,76.7
2022-11-02T02:39:28.746Z,77
2022-11-02T02:42:28.762Z,77.1
2022-11-02T02:45:28.802Z,77.2
2022-11-02T02:48:28.797Z,77.5
2022-11-02T02:51:28.820Z,77.8
2022-11-02T02:54:28.826Z,78.1
2022-11-02T02:57:28.846Z,78.3
2022-11-02T03:00:28.859Z,78.7
2022-11-02T03:03:28.900Z,78.8
2022-11-02T03:06:28.888Z,78.8
2022-11-02T03:09:28.895Z,78.7
2022-11-02T03:12:28.917Z,78.6
2022-11-02T03:15:28.933Z,78.4
2022-11-02T03:18:28.947Z,78.5
2022-11-02T03:21:28.984Z,78.7
2022-11-02T03:24:28.979Z,79.1
2022-11-02T03:27:28.984Z,79.4
2022-11-02T03:30:29.004Z,79.6
2022-11-02T03:33:29.025Z,79.9
2022-11-02T03:36:29.037Z,80.1
2022-11-02T03:39:29.080Z,80.1
2022-11-02T03:42:29.075Z,80.1
2022-11-02T03:45:29.089Z,80.2
2022-11-02T03:48:29.100Z,80.1
2022-11-02T03:51:29.126Z,80.1
2022-11-02T03:54:29.141Z,79.9
2022-11-02T03:57:29.182Z,79.6
2022-11-02T04:00:29.174Z,79.3
2022-11-02T04:03:29.194Z,78.7
2022-11-02T04:06:29.215Z,78
2022-11-02T04:09:29.233Z,77.5
2022-11-02T04:12:29.248Z,76.9
2022-11-02T04:15:29.283Z,76.3
2022-11-02T04:18:29.280Z,76
2022-11-02T04:21:29.292Z,75.6
2022-11-02T04:24:29.311Z,75.1
2022-11-02T04:27:29.332Z,74.7
2022-11-02T04:30:29.350Z,74.6
2022-11-02T04:33:29.391Z,74.3
2022-11-02T04:36:29.386Z,74.1
2022-11-02T04:39:29.397Z,74
2022-11-02T04:42:29.424Z,73.9
2022-11-02T04:45:29.439Z,74
2022-11-02T04:48:29.455Z,74.2
2022-11-02T04:51:29.495Z,74.5
2022-11-02T04:54:29.490Z,74.4
2022-11-02T04:57:29.531Z,74.4
2022-11-02T05:00:29.525Z,74.5
2022-11-02T05:03:29.542Z,74.6
2022-11-02T05:06:29.559Z,74.4
2022-11-02T05:09:29.600Z,74.4
2022-11-02T05:12:29.586Z,74.3
2022-11-02T05:15:29.597Z,74.1
2022-11-02T05:18:29.615Z,74
2022-11-02T05:21:29.629Z,73.9
2022-11-02T05:24:29.650Z,73.9
2022-11-02T05:27:29.692Z,73.9
2022-11-02T05:30:29.685Z,74
2022-11-02T05:33:30.779Z,74.2
2022-11-02T05:36:29.722Z,74.4
2022-11-02T05:39:29.741Z,74.8
2022-11-02T05:42:29.766Z,74.9
2022-11-02T05:45:29.803Z,75
2022-11-02T05:48:29.797Z,75.2
2022-11-02T05:51:29.806Z,75.4
2022-11-02T05:54:29.828Z,75.6
2022-11-02T05:57:29.845Z,75.7
2022-11-02T06:00:29.864Z,76.1
2022-11-02T06:03:29.907Z,76.3
2022-11-02T06:06:29.896Z,76.4
2022-11-02T06:09:29.918Z,76.5
2022-11-02T06:12:29.936Z,76.8
2022-11-02T06:15:29.960Z,76.9
2022-11-02T06:18:29.981Z,77.1
2022-11-02T06:21:30.027Z,77.3
2022-11-02T06:24:30.027Z,77.4
2022-11-02T06:27:30.043Z,77.5
2022-11-02T06:30:30.054Z,77.6
2022-11-02T06:33:30.073Z,77.8
2022-11-02T06:36:30.091Z,78.1
2022-11-02T06:39:30.191Z,78.3
2022-11-02T06:42:30.123Z,78.2
2022-11-02T06:45:30.144Z,77.9
2022-11-02T06:48:34.859Z,77.4
2022-11-02T06:51:30.191Z,77.2
2022-11-02T06:54:30.206Z,77.1
2022-11-02T06:57:30.244Z,77
2022-11-02T07:00:30.456Z,76.8
2022-11-02T07:03:30.270Z,76.3
2022-11-02T07:06:30.295Z,75.9
2022-11-02T07:09:30.313Z,75.4
2022-11-02T07:12:30.326Z,74.7
2022-11-02T07:15:30.373Z,74.2
2022-11-02T07:18:30.366Z,73.5
2022-11-02T07:21:30.384Z,72.9
2022-11-02T07:24:30.396Z,72
2022-11-02T07:27:30.411Z,71.6
2022-11-02T07:30:30.425Z,71
2022-11-02T07:33:30.460Z,70.9
2022-11-02T07:36:30.449Z,70.1
2022-11-02T07:39:30.472Z,70
2022-11-02T07:42:30.487Z,69.8
2022-11-02T07:45:30.504Z,69.1
2022-11-02T07:48:30.518Z,68.6
2022-11-02T07:51:30.556Z,68.3
2022-11-02T07:54:30.543Z,67.9
2022-11-02T07:57:30.563Z,67.8
2022-11-02T08:00:30.593Z,68.6
2022-11-02T08:03:30.625Z,69.1
2022-11-02T08:06:30.621Z,69.4
2022-11-02T08:09:30.666Z,69.8
2022-11-02T08:12:30.662Z,70.2
2022-11-02T08:15:30.689Z,69.9
2022-11-02T08:18:30.701Z,69.2
2022-11-02T08:21:30.720Z,68.5
2022-11-02T08:24:30.723Z,67.4
2022-11-02T08:27:30.870Z,67
2022-11-02T08:30:30.750Z,66.2
2022-11-02T08:33:30.774Z,65.8
2022-11-02T08:36:30.791Z,65.3
2022-11-02T08:39:30.807Z,63.7
2022-11-02T08:42:30.825Z,63.5
2022-11-02T08:45:42.985Z,63.2
2022-11-02T08:48:30.856Z,63.1
2022-11-02T08:51:30.884Z,62.4
2022-11-02T08:54:30.914Z,62.5
2022-11-02T08:57:30.930Z,62.6
2022-11-02T09:00:30.952Z,62.8
2022-11-02T09:03:30.987Z,62.8
2022-11-02T09:06:30.984Z,63
2022-11-02T09:09:31.010Z,63.6
2022-11-02T09:12:31.033Z,64.4
2022-11-02T09:15:31.042Z,65.3
2022-11-02T09:18:31.063Z,65.8
2022-11-02T09:21:31.106Z,66.3
2022-11-02T09:24:31.085Z,66.5
2022-11-02T09:27:31.104Z,66.6
2022-11-02T09:30:31.137Z,66.5
2022-11-02T09:33:31.152Z,66.6
2022-11-02T09:36:31.169Z,66.6
2022-11-02T09:39:31.216Z,66.7
2022-11-02T09:42:31.195Z,67.5
2022-11-02T09:45:31.217Z,67.6
2022-11-02T09:48:31.724Z,67.4
2022-11-02T09:51:31.247Z,67.4
2022-11-02T09:54:31.273Z,66.9
2022-11-02T09:57:31.317Z,67
2022-11-02T10:00:31.319Z,65.8
2022-11-02T10:03:31.333Z,64.5
2022-11-02T10:06:31.355Z,62.7
2022-11-02T10:09:31.372Z,61.5
2022-11-02T10:12:31.386Z,61.4
2022-11-02T10:15:31.434Z,62.2
2022-11-02T10:18:31.421Z,62.5
2022-11-02T10:21:31.451Z,61.8
2022-11-02T10:24:31.464Z,62.3
2022-11-02T10:27:31.480Z,61.8
2022-11-02T10:30:31.500Z,61.4
2022-11-02T10:33:31.537Z,60.8
2022-11-02T10:36:31.524Z,60.3
2022-11-02T10:39:31.543Z,59.6
2022-11-02T10:42:31.562Z,58.5
2022-11-02T10:45:31.584Z,58.8
2022-11-02T10:48:31.606Z,58.5
2022-11-02T10:51:31.652Z,58.3
2022-11-02T10:54:34.425Z,56.2
2022-11-02T10:57:31.672Z,55.1
2022-11-02T11:00:31.741Z,54.6
2022-11-02T11:03:31.711Z,55.1
2022-11-02T11:06:31.728Z,55
2022-11-02T11:09:31.763Z,55.3
2022-11-02T11:12:31.756Z,54.7
2022-11-02T11:15:47.264Z,54.4
2022-11-02T11:21:31.821Z,53.3
2022-11-02T11:24:31.911Z,51.6
2022-11-02T11:27:31.882Z,51.5
2022-11-02T11:30:59.352Z,51.3
2022-11-02T11:33:31.895Z,51.6
2022-11-02T11:36:31.923Z,52.4
2022-11-02T11:39:31.942Z,52.2
2022-11-02T11:42:31.962Z,52.5
2022-11-02T11:45:32.009Z,52.2
2022-11-02T11:48:32.001Z,51.8
2022-11-02T11:51:32.045Z,51.1
2022-11-02T11:54:32.060Z,50.9
2022-11-02T11:57:32.213Z,50.7
2022-11-02T12:00:32.080Z,50.6
2022-11-02T12:03:32.125Z,51.2
2022-11-02T12:06:32.150Z,51
2022-11-02T12:09:32.143Z,50.9
2022-11-02T12:12:32.165Z,51.3
2022-11-02T12:15:32.250Z,51.4
2022-11-02T12:18:32.199Z,51.1
2022-11-02T12:21:32.223Z,50.7
2022-11-02T12:24:32.198Z,51.6
2022-11-02T12:27:32.200Z,51.1
2022-11-02T12:30:32.198Z,51
2022-11-02T12:33:32.202Z,51.3
2022-11-02T12:36:32.206Z,50.5
2022-11-02T12:39:32.234Z,50.7
2022-11-02T12:42:32.212Z,49.9
2022-11-02T12:45:34.681Z,50.1
2022-11-02T12:48:32.214Z,50.4
2022-11-02T12:51:32.220Z,51
2022-11-02T12:54:32.217Z,51.3
2022-11-02T12:57:32.236Z,52
2022-11-02T13:00:32.214Z,51.9
2022-11-02T13:03:32.219Z,51.8
2022-11-02T13:06:32.224Z,52.1
2022-11-02T13:09:32.220Z,52.6
2022-11-02T13:12:32.225Z,52.3
2022-11-02T13:15:32.248Z,51.5
2022-11-02T13:18:32.229Z,51.6
2022-11-02T13:21:32.221Z,51.8
2022-11-02T13:24:32.297Z,52.6
2022-11-02T13:27:36.733Z,53.1
2022-11-02T13:30:32.224Z,53.9
2022-11-02T13:33:32.253Z,54.2
2022-11-02T13:36:32.224Z,54.7
2022-11-02T13:39:32.231Z,55.6
2022-11-02T13:42:32.228Z,56.3
2022-11-02T13:48:32.235Z,56.3
2022-11-02T13:51:32.257Z,56.5
2022-11-02T13:54:32.243Z,56.3
2022-11-02T13:57:32.244Z,55.4
2022-11-02T14:00:32.244Z,55.2
2022-11-02T14:03:32.250Z,55.3
2022-11-02T14:06:32.250Z,55.4
2022-11-02T14:09:32.281Z,55.4
2022-11-02T14:12:32.258Z,55.3
2022-11-02T14:15:32.264Z,55.2
2022-11-02T14:18:32.264Z,55.2
2022-11-02T14:21:32.267Z,54.8
2022-11-02T14:24:32.271Z,53.8
2022-11-02T14:27:32.404Z,53.9
2022-11-02T14:30:32.280Z,54.5
2022-11-02T14:33:32.291Z,55.3
2022-11-02T14:36:32.288Z,55.8
2022-11-02T14:39:32.296Z,56.2
2022-11-02T14:42:32.301Z,55.9
2022-11-02T14:45:32.340Z,56.3
2022-11-02T14:48:32.305Z,56.3
2022-11-02T14:51:32.307Z,56.6
2022-11-02T14:54:32.313Z,56.8
2022-11-02T14:57:32.318Z,57.2
2022-11-02T15:00:32.319Z,57
2022-11-02T15:03:32.357Z,57.5
2022-11-02T15:06:32.335Z,57.8
2022-11-02T15:09:32.335Z,58
2022-11-02T15:12:32.339Z,58.5
2022-11-02T15:15:32.344Z,59
2022-11-02T15:18:32.352Z,59.5
2022-11-02T15:21:32.382Z,60
2022-11-02T15:24:32.354Z,60.4
2022-11-02T15:27:32.363Z,61.1
2022-11-02T15:30:32.370Z,61.6
2022-11-02T15:33:32.368Z,62.2
2022-11-02T15:36:32.382Z,62.4
2022-11-02T15:39:32.411Z,62.7
2022-11-02T15:42:32.392Z,62.9
2022-11-02T15:45:48.709Z,63.1
2022-11-02T15:48:32.422Z,63.6
2022-11-02T15:51:32.434Z,64.1
2022-11-02T15:54:32.430Z,64.6
2022-11-02T15:57:32.463Z,65.1
2022-11-02T16:00:32.451Z,65.6
2022-11-02T16:03:32.451Z,66.4
2022-11-02T16:06:32.459Z,66.9
2022-11-02T16:09:32.464Z,67.6
2022-11-02T16:12:32.467Z,68.1
2022-11-02T16:15:32.503Z,68.7
2022-11-02T16:18:32.489Z,69.2
2022-11-02T16:21:32.502Z,69.9
2022-11-02T16:24:32.555Z,70.3
2022-11-02T16:27:32.541Z,71.2
2022-11-02T16:30:32.551Z,71.8
2022-11-02T16:33:32.579Z,72
2022-11-02T16:36:32.570Z,72.8
2022-11-02T16:39:32.589Z,73.2
2022-11-02T16:42:32.602Z,73.8
2022-11-02T16:45:34.713Z,74.3
2022-11-02T16:48:32.633Z,74.5
2022-11-02T16:51:32.665Z,74.8
2022-11-02T16:54:32.657Z,75.1
2022-11-02T16:57:32.676Z,75.4
2022-11-02T17:00:32.691Z,75.5
2022-11-02T17:03:32.705Z,75.4
2022-11-02T17:06:32.719Z,75.9
2022-11-02T17:09:32.755Z,76.6
2022-11-02T17:12:32.744Z,76.6
2022-11-02T17:15:32.769Z,76.8
2022-11-02T17:18:32.774Z,76.9
2022-11-02T17:21:32.804Z,77
2022-11-02T17:24:32.804Z,77.3
2022-11-02T17:27:36.179Z,77.4
2022-11-02T17:30:32.835Z,77.2
2022-11-02T17:33:32.854Z,77.4
2022-11-02T17:36:32.864Z,77.5
2022-11-02T17:39:32.876Z,77.4
2022-11-02T17:42:32.888Z,77.7
2022-11-02T17:45:32.929Z,77.9
2022-11-02T17:48:32.913Z,77.8
2022-11-02T17:51:32.924Z,78.1
2022-11-02T17:54:32.932Z,78.4
2022-11-02T17:57:32.941Z,78.6
2022-11-02T18:00:32.949Z,79
2022-11-02T18:03:32.994Z,79.4
2022-11-02T18:06:32.977Z,79.9
2022-11-02T18:09:32.984Z,80.2
2022-11-02T18:12:32.990Z,80.3
2022-11-02T18:15:33.008Z,80.3
2022-11-02T18:18:33.012Z,80.3
2022-11-02T18:21:33.063Z,80.5
2022-11-02T18:24:33.024Z,80.9
2022-11-02T18:27:33.033Z,81.1
2022-11-02T18:30:33.041Z,81.4
2022-11-02T18:33:33.049Z,81.7
2022-11-02T18:36:33.084Z,81.9
2022-11-02T18:39:33.092Z,82
2022-11-02T18:42:33.077Z,82.1
2022-11-02T18:45:33.088Z,81.7
2022-11-02T18:48:33.099Z,82.2
2022-11-02T18:51:33.122Z,82.2
2022-11-02T18:54:33.123Z,82.4
2022-11-02T18:57:33.148Z,82.6
2022-11-02T19:00:33.132Z,82.7
2022-11-02T19:03:33.142Z,82.4
2022-11-02T19:06:33.164Z,83
2022-11-02T19:09:33.161Z,83
2022-11-02T19:12:33.168Z,82.8
2022-11-02T19:15:33.200Z,82.5
2022-11-02T19:18:33.187Z,82.1
2022-11-02T19:21:33.207Z,81.9
2022-11-02T19:24:33.205Z,81.6
2022-11-02T19:27:33.205Z,81.6
2022-11-02T19:30:33.217Z,81.5
2022-11-02T19:33:33.248Z,81.5
2022-11-02T19:36:33.254Z,81.2
2022-11-02T19:39:33.248Z,81
2022-11-02T19:42:33.256Z,80.7
2022-11-02T19:45:33.269Z,80.6
2022-11-02T19:48:33.279Z,80.6
2022-11-02T19:51:33.318Z,80.6
2022-11-02T19:54:33.405Z,80.5
2022-11-02T19:57:33.564Z,80.4
2022-11-02T20:00:33.313Z,80.5
2022-11-02T20:03:33.322Z,80.4
2022-11-02T20:06:33.338Z,80.4
2022-11-02T20:09:33.359Z,80.7
2022-11-02T20:12:33.351Z,81
2022-11-02T20:15:36.532Z,81.6
2022-11-02T20:18:33.371Z,81.9
2022-11-02T20:21:38.165Z,82.1
2022-11-02T20:24:33.389Z,82.6
2022-11-02T20:30:33.408Z,82.8
2022-11-02T20:33:33.414Z,83.1
2022-11-02T20:36:33.484Z,83.4
2022-11-02T20:39:33.436Z,83.7
2022-11-02T20:42:33.441Z,83.8
2022-11-02T20:45:33.470Z,84.2
2022-11-02T20:48:33.484Z,84.5
2022-11-02T20:51:33.499Z,84.8
2022-11-02T20:54:33.493Z,85.1
2022-11-02T20:57:33.486Z,85
2022-11-02T21:00:33.572Z,84.9
2022-11-02T21:03:33.530Z,84.8
2022-11-02T21:06:33.508Z,84.8
2022-11-02T21:09:33.503Z,85
2022-11-02T21:12:33.507Z,85.3
2022-11-02T21:15:33.505Z,85.6
2022-11-02T21:18:33.506Z,85.5
2022-11-02T21:21:33.545Z,85.6
2022-11-02T21:24:33.503Z,85.9
2022-11-02T21:27:33.509Z,86.3
2022-11-02T21:30:33.507Z,86.2
2022-11-02T21:33:33.514Z,86.2
2022-11-02T21:36:33.528Z,86.2
2022-11-02T21:39:33.540Z,86.5
2022-11-02T21:42:33.519Z,86.6
2022-11-02T21:45:37.574Z,86.5
2022-11-02T21:48:33.517Z,86.6
2022-11-02T21:51:33.531Z,86.6
2022-11-02T21:54:33.522Z,86.8
2022-11-02T21:57:33.551Z,86.5
2022-11-02T22:00:33.525Z,86.3
2022-11-02T22:03:33.528Z,86.4
2022-11-02T22:06:33.539Z,86.5
2022-11-02T22:09:33.533Z,86.6
2022-11-02T22:12:33.532Z,86.2
2022-11-02T22:15:35.876Z,86.7
2022-11-02T22:18:33.533Z,86.9
2022-11-02T22:21:33.551Z,87
2022-11-02T22:24:33.547Z,87.1
2022-11-02T22:27:33.548Z,87.2
2022-11-02T22:30:33.543Z,87.3
2022-11-02T22:33:33.570Z,87.1
2022-11-02T22:36:33.578Z,87.4
2022-11-02T22:39:33.560Z,87.5
2022-11-02T22:42:35.863Z,87.5
2022-11-02T22:45:33.565Z,87.2
2022-11-02T22:48:33.575Z,87.2
2022-11-02T22:51:33.615Z,86.8
2022-11-02T22:54:33.573Z,86.7
2022-11-02T22:57:33.568Z,86.6
2022-11-02T23:00:33.575Z,86.6
2022-11-02T23:03:33.575Z,86.9
2022-11-02T23:06:33.611Z,87.1
2022-11-02T23:09:33.605Z,87.5
2022-11-02T23:12:33.578Z,87.7
2022-11-02T23:15:33.587Z,87.7
2022-11-02T23:18:33.591Z,87.7
2022-11-02T23:21:33.594Z,87.5
2022-11-02T23:24:33.588Z,87.8
2022-11-02T23:27:33.625Z,88
2022-11-02T23:30:33.608Z,88.2
2022-11-02T23:33:33.609Z,88.4
2022-11-02T23:36:33.774Z,89.2
2022-11-02T23:39:33.614Z,89.7
2022-11-02T23:42:33.617Z,90
2022-11-02T23:45:33.644Z,90.4
2022-11-02T23:48:33.628Z,90.6
2022-11-02T23:51:33.658Z,90.3
2022-11-02T23:54:33.637Z,90.3
2022-11-02T23:57:33.637Z,90.6
